createdAt,value
2023-04-06T00:00:10.401Z,19297.66
2023-04-06T00:02:38.813Z,19299.69
2023-04-06T00:05:08.134Z,19320.00
2023-04-06T00:07:36.687Z,19289.53
2023-04-06T00:10:06.333Z,19275.31
2023-04-06T00:12:34.693Z,19324.06
2023-04-06T00:15:03.985Z,19317.97
2023-04-06T00:17:33.672Z,19336.25
2023-04-06T00:20:02.219Z,19291.56
2023-04-06T00:22:30.737Z,19309.84
2023-04-06T00:24:58.974Z,19305.78
2023-04-06T00:27:27.326Z,19303.75
2023-04-06T00:29:55.536Z,19301.72
2023-04-06T00:32:23.801Z,19291.56
2023-04-06T00:34:53.401Z,19303.75
2023-04-06T00:37:21.654Z,19291.56
2023-04-06T00:39:49.920Z,19301.72
2023-04-06T00:42:19.128Z,19315.94
2023-04-06T00:44:47.364Z,19261.06
2023-04-06T00:47:15.557Z,19293.59
2023-04-06T00:49:43.833Z,19303.75
2023-04-06T00:52:13.536Z,19273.28
2023-04-06T00:54:41.816Z,19277.34
2023-04-06T00:57:10.424Z,19273.28
2023-04-06T00:59:38.774Z,19315.94
2023-04-06T01:02:07.540Z,19287.50
2023-04-06T01:04:36.561Z,19273.28
2023-04-06T01:07:04.933Z,19277.34
2023-04-06T01:09:35.117Z,19254.97
2023-04-06T01:12:04.227Z,19279.38
2023-04-06T01:14:32.605Z,19301.72
2023-04-06T01:17:02.272Z,19285.47
2023-04-06T01:19:30.864Z,19293.59
2023-04-06T01:21:59.126Z,19275.31
2023-04-06T01:24:28.749Z,19305.78
2023-04-06T01:26:57.482Z,19275.31
2023-04-06T01:29:25.924Z,19277.34
2023-04-06T01:31:54.324Z,19291.56
2023-04-06T01:34:22.609Z,19283.44
2023-04-06T01:36:51.212Z,19299.69
2023-04-06T01:39:19.507Z,19279.38
2023-04-06T01:41:49.121Z,19277.34
2023-04-06T01:44:19.964Z,19285.47
2023-04-06T01:46:48.287Z,19320.00
2023-04-06T01:49:16.721Z,19248.88
2023-04-06T01:51:44.968Z,19257.00
2023-04-06T01:54:13.194Z,19259.03
2023-04-06T01:56:41.972Z,19293.59
2023-04-06T01:59:11.706Z,19277.34
2023-04-06T02:01:40.089Z,19299.69
2023-04-06T02:04:08.382Z,19285.47
2023-04-06T02:06:36.617Z,19257.00
2023-04-06T02:09:04.992Z,19265.13
2023-04-06T02:11:33.426Z,19275.31
2023-04-06T02:14:02.009Z,19277.34
2023-04-06T02:16:31.806Z,19271.25
2023-04-06T02:19:00.038Z,19244.81
2023-04-06T02:21:28.399Z,19289.53
2023-04-06T02:23:56.743Z,19275.31
2023-04-06T02:26:25.046Z,19281.41
2023-04-06T02:28:53.305Z,19265.13
2023-04-06T02:31:21.703Z,19259.03
2023-04-06T02:33:51.352Z,19322.03
2023-04-06T02:36:19.584Z,19257.00
2023-04-06T02:38:47.949Z,19261.06
2023-04-06T02:41:16.193Z,19301.72
2023-04-06T02:43:44.423Z,19287.50
2023-04-06T02:46:12.655Z,19257.00
2023-04-06T02:48:40.900Z,19295.63
2023-04-06T02:51:10.532Z,19275.31
2023-04-06T02:53:38.774Z,19259.03
2023-04-06T02:56:08.152Z,19263.09
2023-04-06T02:58:36.389Z,19236.69
2023-04-06T03:01:05.161Z,19200.13
2023-04-06T03:03:33.459Z,19279.38
2023-04-06T03:06:01.850Z,19234.66
2023-04-06T03:08:31.564Z,19244.81
2023-04-06T03:10:59.851Z,19228.56
2023-04-06T03:13:28.072Z,19240.75
2023-04-06T03:15:56.413Z,19265.13
2023-04-06T03:18:26.518Z,19232.63
2023-04-06T03:20:55.893Z,19232.63
2023-04-06T03:23:24.234Z,19226.53
2023-04-06T03:25:53.942Z,19228.56
2023-04-06T03:28:22.153Z,19236.69
2023-04-06T03:30:51.359Z,19212.31
2023-04-06T03:33:19.798Z,19236.69
2023-04-06T03:35:48.083Z,19194.03
2023-04-06T03:38:16.669Z,19204.19
2023-04-06T03:40:44.899Z,19208.25
2023-04-06T03:43:14.517Z,19206.22
2023-04-06T03:45:42.738Z,19185.88
2023-04-06T03:48:11.064Z,19216.38
2023-04-06T03:50:39.290Z,19200.13
2023-04-06T03:53:07.570Z,19187.91
2023-04-06T03:55:35.775Z,19198.09
2023-04-06T03:58:04.050Z,19179.78
2023-04-06T04:00:33.897Z,19149.31
2023-04-06T04:03:03.194Z,19155.41
2023-04-06T04:05:31.621Z,19198.09
2023-04-06T04:07:59.880Z,19179.78
2023-04-06T04:10:28.119Z,19187.91
2023-04-06T04:12:56.486Z,19163.53
2023-04-06T04:15:24.754Z,19175.72
2023-04-06T04:17:54.495Z,19181.81
2023-04-06T04:20:22.870Z,19169.63
2023-04-06T04:22:51.097Z,19143.22
2023-04-06T04:25:19.325Z,19137.13
2023-04-06T04:27:47.570Z,19131.03
2023-04-06T04:30:16.277Z,19159.47
2023-04-06T04:32:44.733Z,19141.19
2023-04-06T04:35:14.810Z,19120.88
2023-04-06T04:37:43.652Z,19143.22
2023-04-06T04:40:13.703Z,19122.91
2023-04-06T04:42:42.114Z,19169.63
2023-04-06T04:45:11.346Z,19118.84
2023-04-06T04:47:39.666Z,19149.31
2023-04-06T04:50:09.145Z,19137.13
2023-04-06T04:52:40.447Z,19141.19
2023-04-06T04:55:09.554Z,19151.34
2023-04-06T04:57:37.756Z,19163.53
2023-04-06T05:00:07.352Z,19108.69
2023-04-06T05:02:35.664Z,19133.06
2023-04-06T05:05:04.032Z,19139.16
2023-04-06T05:07:32.319Z,19161.50
2023-04-06T05:10:01.926Z,19161.50
2023-04-06T05:12:30.594Z,19151.34
2023-04-06T05:14:58.950Z,19163.53
2023-04-06T05:17:27.488Z,19179.78
2023-04-06T05:19:56.205Z,19165.56
2023-04-06T05:22:24.558Z,19124.94
2023-04-06T05:24:52.812Z,19122.91
2023-04-06T05:27:22.410Z,19139.16
2023-04-06T05:29:51.248Z,19163.53
2023-04-06T05:32:22.889Z,19177.75
2023-04-06T05:34:51.576Z,19157.44
2023-04-06T05:37:19.898Z,19167.59
2023-04-06T05:39:48.153Z,19185.88
2023-04-06T05:42:16.363Z,19177.75
2023-04-06T05:44:46.019Z,19212.31
2023-04-06T05:47:14.232Z,19202.16
2023-04-06T05:49:44.572Z,19222.47
2023-04-06T05:52:12.811Z,19210.28
2023-04-06T05:54:41.053Z,19246.84
2023-04-06T05:57:09.279Z,19216.38
2023-04-06T05:59:37.875Z,19236.69
2023-04-06T06:02:08.092Z,19257.00
2023-04-06T06:04:36.524Z,19244.81
2023-04-06T06:07:05.136Z,19285.47
2023-04-06T06:09:33.471Z,19289.53
2023-04-06T06:12:02.632Z,19293.59
2023-04-06T06:14:31.020Z,19326.09
2023-04-06T06:16:59.385Z,19374.88
2023-04-06T06:19:29.074Z,19378.94
2023-04-06T06:21:57.377Z,19409.41
2023-04-06T06:24:26.308Z,19425.69
2023-04-06T06:26:54.533Z,19439.91
2023-04-06T06:29:22.819Z,19462.25
2023-04-06T06:31:51.068Z,19470.38
2023-04-06T06:34:19.331Z,19448.03
2023-04-06T06:36:50.514Z,19474.44
2023-04-06T06:39:20.563Z,19498.84
2023-04-06T06:41:48.837Z,19492.75
2023-04-06T06:44:17.639Z,19500.88
2023-04-06T06:46:46.112Z,19565.91
2023-04-06T06:49:15.244Z,19541.50
2023-04-06T06:51:43.455Z,19506.97
2023-04-06T06:54:13.074Z,19543.53
2023-04-06T06:56:41.414Z,19527.28
2023-04-06T06:59:09.771Z,19543.53
2023-04-06T07:01:39.301Z,19525.25
2023-04-06T07:04:08.840Z,19525.25
2023-04-06T07:06:37.830Z,19529.31
2023-04-06T07:09:06.333Z,19549.63
2023-04-06T07:11:35.959Z,19563.88
2023-04-06T07:14:04.167Z,19569.97
2023-04-06T07:16:32.490Z,19614.66
2023-04-06T07:19:00.981Z,19667.50
2023-04-06T07:21:29.258Z,19673.59
2023-04-06T07:23:57.513Z,19659.38
2023-04-06T07:26:27.082Z,19687.84
2023-04-06T07:28:56.720Z,19722.38
2023-04-06T07:31:25.038Z,19643.13
2023-04-06T07:33:53.316Z,19683.78
2023-04-06T07:36:23.023Z,19673.59
2023-04-06T07:38:51.263Z,19679.72
2023-04-06T07:41:19.561Z,19681.75
2023-04-06T07:43:47.811Z,19687.84
2023-04-06T07:46:17.493Z,19700.03
2023-04-06T07:48:45.762Z,19704.09
2023-04-06T07:51:15.263Z,19722.38
2023-04-06T07:53:43.528Z,19687.84
2023-04-06T07:56:11.788Z,19665.47
2023-04-06T07:58:40.152Z,19683.78
2023-04-06T08:01:08.429Z,19673.59
2023-04-06T08:03:38.669Z,19720.34
2023-04-06T08:06:07.500Z,19695.97
2023-04-06T08:08:35.726Z,19687.84
2023-04-06T08:11:04.604Z,19687.84
2023-04-06T08:13:32.862Z,19730.50
2023-04-06T08:16:02.139Z,19728.47
2023-04-06T08:18:30.920Z,19740.69
2023-04-06T08:21:00.585Z,19732.53
2023-04-06T08:23:28.838Z,19720.34
2023-04-06T08:25:57.349Z,19746.78
2023-04-06T08:28:25.673Z,19761.00
2023-04-06T08:30:53.967Z,19750.84
2023-04-06T08:33:22.263Z,19765.06
2023-04-06T08:35:50.858Z,19756.94
2023-04-06T08:38:20.456Z,19763.03
2023-04-06T08:40:50.753Z,19763.03
2023-04-06T08:43:23.946Z,19765.06
2023-04-06T08:45:52.331Z,19828.06
2023-04-06T08:48:21.487Z,19793.50
2023-04-06T08:50:49.701Z,19828.06
2023-04-06T08:53:22.992Z,19866.69
2023-04-06T08:55:53.401Z,19872.78
2023-04-06T08:58:35.211Z,19887.00
2023-04-06T09:01:13.100Z,19854.50
2023-04-06T09:03:42.812Z,19862.63
2023-04-06T09:06:13.257Z,19858.56
2023-04-06T09:08:43.998Z,19878.88
2023-04-06T09:11:13.036Z,19872.78
2023-04-06T09:13:49.710Z,19830.09
2023-04-06T09:16:18.397Z,19887.00
2023-04-06T09:18:47.263Z,19895.13
2023-04-06T09:21:19.438Z,19923.59
2023-04-06T09:23:49.634Z,19931.72
2023-04-06T09:26:19.520Z,19937.81
2023-04-06T09:28:49.592Z,19962.19
2023-04-06T09:31:23.140Z,19970.34
2023-04-06T09:33:52.910Z,19968.31
2023-04-06T09:36:22.003Z,20023.19
2023-04-06T09:39:00.446Z,20031.31
2023-04-06T09:41:30.552Z,20004.88
2023-04-06T09:44:07.591Z,19986.59
2023-04-06T09:46:55.042Z,20004.88
2023-04-06T09:49:30.124Z,20008.94
2023-04-06T09:52:03.654Z,19952.03
2023-04-06T09:54:34.376Z,19950.00
2023-04-06T09:57:14.966Z,19887.00
2023-04-06T09:59:52.947Z,19907.31
2023-04-06T10:02:34.336Z,19952.03
2023-04-06T10:05:11.882Z,20000.81
2023-04-06T10:07:58.991Z,20021.16
2023-04-06T10:10:31.330Z,20004.88
2023-04-06T10:13:01.043Z,20084.16
2023-04-06T10:15:31.372Z,20096.34
2023-04-06T10:18:01.016Z,20118.69
2023-04-06T10:20:38.538Z,20126.84
2023-04-06T10:23:16.466Z,20118.69
2023-04-06T10:25:56.847Z,20143.09
2023-04-06T10:28:26.142Z,20167.47
2023-04-06T10:31:00.687Z,20175.63
2023-04-06T10:33:29.858Z,20191.88
2023-04-06T10:35:58.487Z,20149.19
2023-04-06T10:38:39.668Z,20082.13
2023-04-06T10:41:13.079Z,20102.44
2023-04-06T10:43:43.346Z,20080.09
2023-04-06T10:46:12.655Z,20061.78
2023-04-06T10:48:42.981Z,20027.25
2023-04-06T10:51:14.325Z,20021.16
2023-04-06T10:53:45.312Z,20025.22
2023-04-06T10:56:17.559Z,20055.69
2023-04-06T10:58:49.898Z,20033.34
2023-04-06T11:01:19.381Z,20025.22
2023-04-06T11:03:48.858Z,20045.53
2023-04-06T11:06:24.804Z,20057.72
2023-04-06T11:08:54.720Z,20106.50
2023-04-06T11:11:27.502Z,20039.44
2023-04-06T11:13:58.766Z,20013.00
2023-04-06T11:16:29.461Z,19980.50
2023-04-06T11:19:00.073Z,20008.94
2023-04-06T11:21:37.609Z,20067.88
2023-04-06T11:24:14.453Z,20094.31
2023-04-06T11:26:46.863Z,20110.56
2023-04-06T11:29:16.991Z,20100.41
2023-04-06T11:31:48.572Z,20128.88
2023-04-06T11:34:20.443Z,20175.63
2023-04-06T11:36:51.788Z,20191.88
2023-04-06T11:39:26.384Z,20191.88
2023-04-06T11:41:59.875Z,20204.06
2023-04-06T11:44:35.482Z,20220.34
2023-04-06T11:47:05.428Z,20193.91
2023-04-06T11:49:35.489Z,20122.78
2023-04-06T11:52:04.297Z,20076.03
2023-04-06T11:54:34.544Z,20078.06
2023-04-06T11:57:05.675Z,20104.47
2023-04-06T11:59:34.988Z,20122.78
2023-04-06T12:02:04.452Z,20141.06
2023-04-06T12:04:33.843Z,20141.06
2023-04-06T12:07:02.106Z,20159.34
2023-04-06T12:09:30.556Z,20185.78
2023-04-06T12:11:59.309Z,20204.06
2023-04-06T12:14:28.970Z,20208.13
2023-04-06T12:16:57.180Z,20216.25
2023-04-06T12:19:26.785Z,20195.94
2023-04-06T12:21:55.763Z,20228.47
2023-04-06T12:24:24.038Z,20224.41
2023-04-06T12:26:59.521Z,20244.72
2023-04-06T12:29:36.364Z,20216.25
2023-04-06T12:32:04.812Z,20250.81
2023-04-06T12:34:33.058Z,20242.69
2023-04-06T12:37:01.700Z,20212.19
2023-04-06T12:39:31.160Z,20183.75
2023-04-06T12:41:59.610Z,20208.13
2023-04-06T12:44:27.860Z,20226.44
2023-04-06T12:46:57.729Z,20202.03
2023-04-06T12:49:26.499Z,20204.06
2023-04-06T12:51:54.856Z,20189.84
2023-04-06T12:54:23.078Z,20248.78
2023-04-06T12:56:51.436Z,20222.38
2023-04-06T12:59:19.796Z,20224.41
2023-04-06T13:01:48.108Z,20246.75
2023-04-06T13:04:17.900Z,20246.75
2023-04-06T13:06:46.142Z,20250.81
2023-04-06T13:09:14.478Z,20289.44
2023-04-06T13:11:42.723Z,20252.84
2023-04-06T13:14:11.549Z,20214.22
2023-04-06T13:16:40.442Z,20189.84
2023-04-06T13:19:08.939Z,20258.94
2023-04-06T13:21:38.517Z,20275.22
2023-04-06T13:24:07.054Z,20273.19
2023-04-06T13:26:35.331Z,20309.75
2023-04-06T13:29:03.988Z,20234.56
2023-04-06T13:31:32.462Z,20240.66
2023-04-06T13:34:01.147Z,20248.78
2023-04-06T13:36:29.475Z,20281.31
2023-04-06T13:38:59.438Z,20265.03
2023-04-06T13:41:28.406Z,20279.28
2023-04-06T13:43:58.807Z,20305.69
2023-04-06T13:46:28.899Z,20301.63
2023-04-06T13:48:57.224Z,20281.31
2023-04-06T13:51:25.488Z,20301.63
2023-04-06T13:53:54.646Z,20279.28
2023-04-06T13:56:24.238Z,20299.59
2023-04-06T13:58:55.838Z,20271.16
2023-04-06T14:01:24.190Z,20277.25
2023-04-06T14:03:52.590Z,20254.88
2023-04-06T14:06:31.258Z,20254.88
2023-04-06T14:09:00.342Z,20269.13
2023-04-06T14:11:30.340Z,20256.91
2023-04-06T14:13:58.785Z,20252.84
2023-04-06T14:16:27.589Z,20263.00
2023-04-06T14:18:58.664Z,20226.44
2023-04-06T14:21:27.553Z,20256.91
2023-04-06T14:23:58.007Z,20277.25
2023-04-06T14:26:29.782Z,20311.78
2023-04-06T14:28:58.063Z,20260.97
2023-04-06T14:31:26.206Z,20252.84
2023-04-06T14:33:54.991Z,20240.66
2023-04-06T14:36:23.151Z,20252.84
2023-04-06T14:38:51.376Z,20224.41
2023-04-06T14:41:20.287Z,20240.66
2023-04-06T14:43:50.049Z,20226.44
2023-04-06T14:46:18.213Z,20234.56
2023-04-06T14:48:47.166Z,20228.47
2023-04-06T14:51:15.590Z,20244.72
2023-04-06T14:53:44.224Z,20248.78
2023-04-06T14:56:12.485Z,20250.81
2023-04-06T14:58:40.587Z,20244.72
2023-04-06T15:01:10.054Z,20258.94
2023-04-06T15:03:38.335Z,20232.53
2023-04-06T15:06:07.822Z,20202.03
2023-04-06T15:08:35.970Z,20224.41
2023-04-06T15:11:04.035Z,20189.84
2023-04-06T15:13:32.204Z,20206.09
2023-04-06T15:16:02.012Z,20183.75
2023-04-06T15:18:31.730Z,20157.31
2023-04-06T15:20:59.864Z,20218.31
2023-04-06T15:23:30.471Z,20195.94
2023-04-06T15:25:58.944Z,20167.47
2023-04-06T15:28:27.025Z,20191.88
2023-04-06T15:30:58.078Z,20200.00
2023-04-06T15:33:27.261Z,20167.47
2023-04-06T15:35:56.824Z,20153.25
2023-04-06T15:38:24.917Z,20171.56
2023-04-06T15:40:53.263Z,20143.09
2023-04-06T15:43:21.769Z,20145.13
2023-04-06T15:45:49.861Z,20134.97
2023-04-06T15:48:19.195Z,20128.88
2023-04-06T15:50:47.357Z,20159.34
2023-04-06T15:53:17.085Z,20134.97
2023-04-06T15:55:45.478Z,20149.19
2023-04-06T15:58:13.794Z,20078.06
2023-04-06T16:00:42.302Z,20088.22
2023-04-06T16:03:10.560Z,20122.78
2023-04-06T16:05:48.432Z,20069.94
2023-04-06T16:08:28.468Z,20051.63
2023-04-06T16:10:56.587Z,20041.47
2023-04-06T16:13:24.731Z,20051.63
2023-04-06T16:15:53.882Z,20076.03
2023-04-06T16:18:22.090Z,20084.16
2023-04-06T16:20:51.235Z,20088.22
2023-04-06T16:23:19.392Z,20037.41
2023-04-06T16:25:50.251Z,20041.47
2023-04-06T16:28:18.669Z,20027.25
2023-04-06T16:30:47.062Z,20041.47
2023-04-06T16:33:16.991Z,20061.78
2023-04-06T16:35:45.984Z,20006.91
2023-04-06T16:38:14.483Z,20010.97
2023-04-06T16:40:42.703Z,20013.00
2023-04-06T16:43:12.461Z,20029.28
2023-04-06T16:45:41.365Z,19982.53
2023-04-06T16:48:09.538Z,19990.66
2023-04-06T16:50:37.770Z,19950.00
2023-04-06T16:53:05.967Z,19970.34
2023-04-06T16:55:34.096Z,19956.09
2023-04-06T16:58:02.185Z,19943.91
2023-04-06T17:00:31.665Z,19925.63
2023-04-06T17:03:00.024Z,19931.72
2023-04-06T17:05:28.301Z,19919.53
2023-04-06T17:07:56.389Z,19941.88
2023-04-06T17:10:33.308Z,19933.75
2023-04-06T17:13:06.139Z,19901.22
2023-04-06T17:15:35.712Z,19952.03
2023-04-06T17:18:03.871Z,19915.47
2023-04-06T17:20:32.022Z,19931.72
2023-04-06T17:23:00.079Z,19913.44
2023-04-06T17:25:28.170Z,19858.56
2023-04-06T17:27:56.269Z,19887.00
2023-04-06T17:30:24.528Z,19870.75
2023-04-06T17:32:54.309Z,19864.66
2023-04-06T17:35:22.882Z,19876.84
2023-04-06T17:37:51.594Z,19850.41
2023-04-06T17:40:19.895Z,19809.78
2023-04-06T17:42:48.036Z,19811.81
2023-04-06T17:45:16.395Z,19781.31
2023-04-06T17:47:44.550Z,19783.34
2023-04-06T17:50:14.360Z,19779.28
2023-04-06T17:52:42.509Z,19801.66
2023-04-06T17:55:11.135Z,19805.72
2023-04-06T17:57:41.181Z,19809.78
2023-04-06T18:00:12.140Z,19803.69
2023-04-06T18:02:40.321Z,19811.81
2023-04-06T18:05:09.223Z,19777.25
2023-04-06T18:07:38.665Z,19793.50
2023-04-06T18:10:08.620Z,19801.66
2023-04-06T18:12:36.773Z,19783.34
2023-04-06T18:15:06.545Z,19765.06
2023-04-06T18:17:36.089Z,19769.13
2023-04-06T18:20:04.710Z,19761.00
2023-04-06T18:22:34.396Z,19738.66
2023-04-06T18:25:04.031Z,19744.75
2023-04-06T18:27:32.334Z,19756.94
2023-04-06T18:30:01.130Z,19716.28
2023-04-06T18:32:30.528Z,19708.16
2023-04-06T18:34:58.875Z,19706.13
2023-04-06T18:37:27.700Z,19708.16
2023-04-06T18:39:55.769Z,19708.16
2023-04-06T18:42:25.340Z,19698.00
2023-04-06T18:44:53.426Z,19691.91
2023-04-06T18:47:21.583Z,19691.91
2023-04-06T18:49:50.002Z,19669.53
2023-04-06T18:52:18.088Z,19716.28
2023-04-06T18:54:46.159Z,19708.16
2023-04-06T18:57:14.430Z,19704.09
2023-04-06T18:59:43.877Z,19643.13
2023-04-06T19:02:14.302Z,19677.66
2023-04-06T19:04:42.655Z,19673.59
2023-04-06T19:07:11.078Z,19687.84
2023-04-06T19:09:39.229Z,19659.38
2023-04-06T19:12:07.501Z,19657.34
2023-04-06T19:14:35.638Z,19651.25
2023-04-06T19:17:05.123Z,19639.06
2023-04-06T19:19:33.270Z,19649.22
2023-04-06T19:22:01.664Z,19614.66
2023-04-06T19:24:30.093Z,19618.75
2023-04-06T19:26:58.274Z,19647.19
2023-04-06T19:29:26.614Z,19612.63
2023-04-06T19:31:54.805Z,19626.88
2023-04-06T19:34:24.586Z,19624.84
2023-04-06T19:36:52.775Z,19610.59
2023-04-06T19:39:21.639Z,19602.47
2023-04-06T19:41:49.798Z,19622.81
2023-04-06T19:44:18.032Z,19608.56
2023-04-06T19:46:46.502Z,19620.78
2023-04-06T19:49:14.727Z,19649.22
2023-04-06T19:51:44.195Z,19561.84
2023-04-06T19:54:12.317Z,19565.91
2023-04-06T19:56:40.860Z,19576.06
2023-04-06T19:59:10.904Z,19628.91
2023-04-06T20:01:39.103Z,19565.91
2023-04-06T20:04:07.571Z,19590.28
2023-04-06T20:06:35.938Z,19574.03
2023-04-06T20:09:05.638Z,19572.00
2023-04-06T20:11:35.471Z,19563.88
2023-04-06T20:14:03.769Z,19588.25
2023-04-06T20:16:32.029Z,19586.22
2023-04-06T20:19:00.397Z,19561.84
2023-04-06T20:21:28.748Z,19602.47
2023-04-06T20:23:56.902Z,19594.34
2023-04-06T20:26:26.354Z,19555.75
2023-04-06T20:28:54.523Z,19539.47
2023-04-06T20:31:27.348Z,19578.09
2023-04-06T20:33:55.622Z,19559.81
2023-04-06T20:36:24.195Z,19555.75
2023-04-06T20:38:52.279Z,19559.81
2023-04-06T20:41:21.814Z,19555.75
2023-04-06T20:43:51.246Z,19598.41
2023-04-06T20:46:19.357Z,19539.47
2023-04-06T20:48:47.520Z,19529.31
2023-04-06T20:51:24.390Z,19572.00
2023-04-06T20:53:53.407Z,19545.56
2023-04-06T20:56:21.894Z,19569.97
2023-04-06T20:58:51.501Z,19569.97
2023-04-06T21:01:19.841Z,19529.31
2023-04-06T21:03:48.188Z,19557.78
2023-04-06T21:06:16.811Z,19519.16
2023-04-06T21:08:44.929Z,19547.59
2023-04-06T21:11:13.069Z,19578.09
2023-04-06T21:13:41.187Z,19533.38
2023-04-06T21:16:11.343Z,19492.75
2023-04-06T21:18:39.942Z,19519.16
2023-04-06T21:21:08.112Z,19521.19
2023-04-06T21:23:36.331Z,19521.19
2023-04-06T21:26:04.534Z,19529.31
2023-04-06T21:28:32.634Z,19506.97
2023-04-06T21:31:00.763Z,19529.31
2023-04-06T21:33:31.901Z,19468.34
2023-04-06T21:35:59.989Z,19515.09
2023-04-06T21:38:28.099Z,19480.53
2023-04-06T21:40:56.870Z,19515.09
2023-04-06T21:43:25.049Z,19492.75
2023-04-06T21:45:53.482Z,19509.00
2023-04-06T21:48:21.763Z,19470.38
2023-04-06T21:50:51.362Z,19494.78
2023-04-06T21:53:19.457Z,19472.41
2023-04-06T21:55:48.848Z,19470.38
2023-04-06T21:58:17.011Z,19476.47
2023-04-06T22:00:46.246Z,19452.09
2023-04-06T22:03:14.445Z,19464.28
2023-04-06T22:05:42.667Z,19443.97
2023-04-06T22:08:17.937Z,19468.34
2023-04-06T22:10:53.825Z,19452.09
2023-04-06T22:13:22.130Z,19419.59
2023-04-06T22:15:50.312Z,19476.47
2023-04-06T22:18:18.390Z,19452.09
2023-04-06T22:20:47.191Z,19425.69
2023-04-06T22:23:16.731Z,19399.25
2023-04-06T22:25:44.853Z,19411.44
2023-04-06T22:28:12.955Z,19421.63
2023-04-06T22:30:41.101Z,19409.41
2023-04-06T22:33:09.274Z,19415.50
2023-04-06T22:35:37.427Z,19372.84
2023-04-06T22:38:05.620Z,19415.50
2023-04-06T22:40:35.137Z,19407.38
2023-04-06T22:43:03.248Z,19407.38
2023-04-06T22:45:31.460Z,19389.09
2023-04-06T22:47:59.563Z,19411.44
2023-04-06T22:50:27.845Z,19387.06
2023-04-06T22:52:56.156Z,19425.69
2023-04-06T22:55:24.475Z,19393.16
2023-04-06T22:57:53.983Z,19401.28
2023-04-06T23:00:22.268Z,19421.63
2023-04-06T23:02:50.709Z,19419.59
2023-04-06T23:05:18.896Z,19397.22
2023-04-06T23:07:47.003Z,19403.31
2023-04-06T23:10:15.116Z,19391.13
2023-04-06T23:12:43.245Z,19405.34
2023-04-06T23:15:13.589Z,19423.66
2023-04-06T23:17:41.779Z,19385.03
2023-04-06T23:20:10.594Z,19389.09
2023-04-06T23:22:38.689Z,19419.59
2023-04-06T23:25:08.655Z,19403.31
2023-04-06T23:27:36.948Z,19383.00
2023-04-06T23:30:05.841Z,19411.44
2023-04-06T23:32:35.699Z,19397.22
2023-04-06T23:35:04.323Z,19407.38
2023-04-06T23:37:32.497Z,19378.94
2023-04-06T23:40:02.155Z,19421.63
2023-04-06T23:42:30.436Z,19427.72
2023-04-06T23:45:00.780Z,19380.97
2023-04-06T23:47:28.893Z,19425.69
2023-04-06T23:49:58.418Z,19421.63
2023-04-06T23:52:27.019Z,19393.16
2023-04-06T23:54:55.108Z,19389.09
2023-04-06T23:57:23.203Z,19370.81
2023-04-06T23:59:51.283Z,19358.63
